Vremea acum in Nadlac - Romania

Vrei sa afli care e starea vremii acum in Timis - Romania? Dorim sa iti furnizam starea vremii pentru Timis - Romania. Starea vremii Timis - Romania pentru astazi.

Vremea acum in Nadlac

Temperatura: -2 °C

Se simte ca: -6 °C
Innorat: 0 %
Precipitatii: 0 %
Presiune atmosferica: 1015 hPa
Umiditate: 93%
Vizibilitate: 10 km
Vantul bate din W cu 11.2 km/h

Evolutia vremii in Nadlac pe ore

Ora: 09:00
Parțial noros
Temperatura: 2.5°C
Sansa de precipitatii: 0%
Ora Descriere Temp Se simte Precipitatii Umiditate Vant
00:00Parțial noros2.5°-1.6°0%71%WNW 16.9 KM/H
01:00Parțial noros2.1°-2°0%73%WNW 16.2 KM/H
02:00Parțial noros1.9°-2.4°0%74%WNW 17.3 KM/H
03:00Parțial noros1.6°-2.9°0%76%WNW 18 KM/H
04:00Parțial noros1.4°-3.3°0%77%WNW 19.1 KM/H
05:00Parțial noros1.1°-3.5°0%79%WNW 17.6 KM/H
06:00Parțial noros0.8°-3.6°0%81%WNW 16.2 KM/H
07:00Parțial noros0.5°-3.8°0%83%WNW 14.8 KM/H
08:00Parțial noros1.5°-2.7°0%78%WNW 15.5 KM/H
09:00Parțial noros2.5°-1.5°0%73%WNW 16.6 KM/H
10:00Parțial noros3.5°-0.4°0%68%WNW 17.3 KM/H
11:00Cer acoperit3.8°-0.1°0%68%WNW 17.6 KM/H
12:00Parțial noros0.1°0%69%WNW 18 KM/H
13:00Cer acoperit4.3°0.4°0%69%WNW 18.4 KM/H
14:00Ninsori moderate0.3°21%71%W 16.9 KM/H
15:00Cer acoperit3.8°0.1°42%74%W 15.8 KM/H
16:00Ninsori moderate3.5°63%76%W 14.4 KM/H
17:00Lapoviță în cantităţi mici3.3°-0.2°68%77%W 14.4 KM/H
18:00Ninsori moderate3.2°-0.4°74%77%W 14.4 KM/H
19:00Lapoviță în cantităţi mici-0.6°79%78%WSW 14.4 KM/H
20:00Lapoviță în cantităţi mici1.7°-0.7°53%77%W 15.1 KM/H
21:00Lapoviță în cantităţi mici0.3°-0.9°49%75%W 15.8 KM/H
22:00Lapoviță în cantităţi mici-1°-1°73%73%W 16.6 KM/H
23:00Lapoviță în cantităţi mici0.4°-1°49%74%W 16.9 KM/H